Time;durP1;ratioP1;P1;durP2;ratioP2;P2;SDS_P1;SDS_P2;PMS_P1;PMS_P2;Temp;Humidity;BMP_temperature;BMP_pressure;BME280_temperature;BME280_humidity;BME280_pressure;Samples;Min_cycle;Max_cycle;Signal;HPM_P1;HPM_P2
2023/05/31 00:01:43;;;;;;;7.65;3.10;;;;;;;;;;5096741;27;20518;-81
2023/05/31 00:04:09;;;;;;;7.07;3.20;;;;;;;;;;5098340;27;20073;-81
2023/05/31 00:06:36;;;;;;;8.15;3.08;;;;;;;;;;5101147;27;20533;-81
2023/05/31 00:09:02;;;;;;;7.53;3.35;;;;;;;;;;5132067;27;20052;-81
2023/05/31 00:11:28;;;;;;;9.75;3.70;;;;;;;;;;5096950;27;20111;-81
2023/05/31 00:13:55;;;;;;;7.82;3.75;;;;;;;;;;5093064;27;20075;-81
2023/05/31 00:16:21;;;;;;;10.45;3.47;;;;;;;;;;5097487;27;20111;-81
2023/05/31 00:18:47;;;;;;;10.40;3.38;;;;;;;;;;5095532;27;20047;-81
2023/05/31 00:21:13;;;;;;;8.90;3.60;;;;;;;;;;5097090;27;20057;-81
2023/05/31 00:23:39;;;;;;;8.60;3.63;;;;;;;;;;5081176;28;20043;-81
2023/05/31 00:26:06;;;;;;;9.43;3.40;;;;;;;;;;5094416;27;20645;-81
2023/05/31 00:28:32;;;;;;;9.15;4.72;;;;;;;;;;5093293;27;20039;-81
2023/05/31 00:30:58;;;;;;;10.60;3.40;;;;;;;;;;5092658;27;20457;-80
2023/05/31 00:33:24;;;;;;;9.93;3.60;;;;;;;;;;5099778;27;20393;-81
2023/05/31 00:35:50;;;;;;;11.02;3.83;;;;;;;;;;5095162;27;20052;-81
2023/05/31 00:38:16;;;;;;;8.52;4.00;;;;;;;;;;5093300;27;20054;-81
2023/05/31 00:40:43;;;;;;;6.50;3.17;;;;;;;;;;5094020;27;20051;-81
2023/05/31 00:43:09;;;;;;;8.30;4.13;;;;;;;;;;5094559;27;20039;-81
2023/05/31 00:45:35;;;;;;;12.45;4.65;;;;;;;;;;5096963;27;20057;-81
2023/05/31 00:48:02;;;;;;;9.65;4.50;;;;;;;;;;5099844;27;20134;-81
2023/05/31 00:50:28;;;;;;;9.43;3.67;;;;;;;;;;5127946;27;20086;-81
2023/05/31 00:52:55;;;;;;;11.07;3.97;;;;;;;;;;5093666;27;20054;-81
2023/05/31 00:55:22;;;;;;;11.68;4.53;;;;;;;;;;5095573;27;20075;-81
2023/05/31 00:57:48;;;;;;;11.50;4.43;;;;;;;;;;5094498;27;20048;-81
2023/05/31 01:00:15;;;;;;;7.85;3.95;;;;;;;;;;5094834;27;20153;-81
2023/05/31 01:02:43;;;;;;;11.25;4.75;;;;;;;;;;5097998;27;20043;-81
2023/05/31 01:05:09;;;;;;;13.98;4.53;;;;;;;;;;5098374;27;20189;-81
2023/05/31 01:07:36;;;;;;;9.98;4.47;;;;;;;;;;5094399;27;20027;-81
2023/05/31 01:10:03;;;;;;;11.60;5.20;;;;;;;;;;5097879;27;20051;-81
2023/05/31 01:12:29;;;;;;;11.68;4.90;;;;;;;;;;5097051;27;20075;-81
2023/05/31 01:15:08;;;;;;;12.82;6.03;;;;;;;;;;5096525;27;20445;-81
2023/05/31 01:17:46;;;;;;;11.55;4.75;;;;;;;;;;5096571;27;20051;-81
2023/05/31 01:20:14;;;;;;;9.85;5.00;;;;;;;;;;5090093;27;20044;-81
2023/05/31 01:22:41;;;;;;;15.00;4.68;;;;;;;;;;5097781;27;20079;-81
2023/05/31 01:25:26;;;;;;;10.77;4.40;;;;;;;;;;5097019;27;20372;-81
2023/05/31 01:27:53;;;;;;;8.63;4.70;;;;;;;;;;5096683;27;20079;-82
2023/05/31 01:30:21;;;;;;;12.25;5.13;;;;;;;;;;5098680;27;20040;-81
2023/05/31 01:32:48;;;;;;;10.95;4.75;;;;;;;;;;5096096;27;20047;-81
2023/05/31 01:35:14;;;;;;;7.90;4.28;;;;;;;;;;5080697;28;20048;-82
2023/05/31 01:37:40;;;;;;;9.23;4.10;;;;;;;;;;5092432;27;20108;-81
2023/05/31 01:40:08;;;;;;;7.82;3.78;;;;;;;;;;5107044;27;20055;-82
2023/05/31 01:42:35;;;;;;;5.90;3.08;;;;;;;;;;5093899;28;20058;-82
2023/05/31 01:45:01;;;;;;;7.25;3.03;;;;;;;;;;5104246;27;20059;-81
2023/05/31 01:47:28;;;;;;;8.77;3.40;;;;;;;;;;5098920;27;20028;-81
2023/05/31 01:49:54;;;;;;;6.13;2.83;;;;;;;;;;5099969;27;20047;-81
2023/05/31 01:52:21;;;;;;;10.15;3.33;;;;;;;;;;5100709;28;20040;-81
2023/05/31 01:54:47;;;;;;;6.03;2.97;;;;;;;;;;5101876;28;20105;-82
2023/05/31 01:57:15;;;;;;;8.48;3.28;;;;;;;;;;5100702;28;20059;-81
2023/05/31 01:59:42;;;;;;;7.38;3.88;;;;;;;;;;5098095;28;20054;-81
2023/05/31 02:02:08;;;;;;;16.33;4.22;;;;;;;;;;5096821;27;20081;-82
2023/05/31 02:04:34;;;;;;;9.77;4.40;;;;;;;;;;5096232;28;20059;-81
2023/05/31 02:07:00;;;;;;;10.13;4.05;;;;;;;;;;5097639;28;20104;-81
2023/05/31 02:09:26;;;;;;;8.77;4.32;;;;;;;;;;5093842;28;20052;-81
2023/05/31 02:11:52;;;;;;;10.70;4.65;;;;;;;;;;5109698;27;20998;-81
2023/05/31 02:14:19;;;;;;;12.00;4.82;;;;;;;;;;5097687;28;20053;-81
2023/05/31 02:16:45;;;;;;;7.80;4.80;;;;;;;;;;5100714;27;20069;-81
2023/05/31 02:19:13;;;;;;;9.10;4.32;;;;;;;;;;5100951;27;20035;-81
2023/05/31 02:21:40;;;;;;;8.98;4.60;;;;;;;;;;5114961;27;20052;-81
2023/05/31 02:24:06;;;;;;;8.10;5.20;;;;;;;;;;5099292;27;20031;-81
2023/05/31 02:26:32;;;;;;;8.77;5.35;;;;;;;;;;5097372;27;20075;-81
2023/05/31 02:28:58;;;;;;;7.68;4.28;;;;;;;;;;5099139;28;20109;-81
2023/05/31 02:31:24;;;;;;;10.18;4.50;;;;;;;;;;5113732;27;20074;-81
2023/05/31 02:33:51;;;;;;;9.70;4.60;;;;;;;;;;5098710;27;20044;-81
2023/05/31 02:36:17;;;;;;;9.48;5.10;;;;;;;;;;5113514;27;20470;-81
2023/05/31 02:38:43;;;;;;;8.23;4.03;;;;;;;;;;5096543;27;20689;-81
2023/05/31 02:41:09;;;;;;;14.88;5.15;;;;;;;;;;5098879;27;20469;-81
2023/05/31 02:43:36;;;;;;;11.52;5.00;;;;;;;;;;5097375;27;20062;-81
2023/05/31 02:46:02;;;;;;;13.30;4.95;;;;;;;;;;5098989;27;20051;-81
2023/05/31 02:48:29;;;;;;;10.35;4.53;;;;;;;;;;5096784;27;20052;-81
2023/05/31 02:50:55;;;;;;;10.00;4.40;;;;;;;;;;5100882;27;20771;-81
2023/05/31 02:53:22;;;;;;;13.60;5.07;;;;;;;;;;5109373;27;20779;-81
2023/05/31 02:55:48;;;;;;;11.02;4.13;;;;;;;;;;5125875;27;20046;-80
2023/05/31 02:58:14;;;;;;;8.68;4.90;;;;;;;;;;5131611;27;20051;-81
2023/05/31 03:00:41;;;;;;;6.82;3.60;;;;;;;;;;5093411;27;20445;-80
2023/05/31 03:03:07;;;;;;;9.77;3.67;;;;;;;;;;5096440;27;20490;-80
2023/05/31 03:05:34;;;;;;;6.13;3.72;;;;;;;;;;5099742;27;20387;-81
2023/05/31 03:08:00;;;;;;;11.10;3.85;;;;;;;;;;5098923;27;20520;-81
2023/05/31 03:10:26;;;;;;;8.05;3.95;;;;;;;;;;5102020;27;20047;-81
2023/05/31 03:12:52;;;;;;;8.57;4.10;;;;;;;;;;5099267;27;20069;-80
2023/05/31 03:15:19;;;;;;;7.30;3.45;;;;;;;;;;5099815;27;20469;-80
2023/05/31 03:17:45;;;;;;;10.70;4.50;;;;;;;;;;5097135;27;20048;-80
2023/05/31 03:20:11;;;;;;;8.95;3.72;;;;;;;;;;5108203;27;20407;-80
2023/05/31 03:22:37;;;;;;;7.82;4.15;;;;;;;;;;5097140;27;20546;-80
2023/05/31 03:25:04;;;;;;;7.47;4.13;;;;;;;;;;5096455;27;20529;-80
2023/05/31 03:27:30;;;;;;;8.10;3.95;;;;;;;;;;5098387;27;20046;-80
2023/05/31 03:29:56;;;;;;;8.80;3.25;;;;;;;;;;5095726;27;20052;-80
2023/05/31 03:32:23;;;;;;;6.93;3.10;;;;;;;;;;5129976;27;20505;-80
2023/05/31 03:34:49;;;;;;;4.93;2.85;;;;;;;;;;5095792;28;20193;-80
2023/05/31 03:37:15;;;;;;;5.15;2.70;;;;;;;;;;5107806;27;20380;-80
2023/05/31 03:39:41;;;;;;;4.95;3.00;;;;;;;;;;5099720;27;20039;-80
2023/05/31 03:42:07;;;;;;;4.72;2.95;;;;;;;;;;5095870;27;20039;-80
2023/05/31 03:44:34;;;;;;;6.65;3.50;;;;;;;;;;5094093;28;20399;-80
2023/05/31 03:47:00;;;;;;;6.90;3.72;;;;;;;;;;5096066;27;20059;-80
2023/05/31 03:49:26;;;;;;;6.65;3.67;;;;;;;;;;5097346;27;20071;-80
2023/05/31 03:51:52;;;;;;;7.78;4.57;;;;;;;;;;5095428;27;20623;-80
2023/05/31 03:54:18;;;;;;;12.40;5.72;;;;;;;;;;5094206;27;20195;-80
2023/05/31 03:56:44;;;;;;;12.20;6.03;;;;;;;;;;5130841;27;20147;-80
2023/05/31 03:59:10;;;;;;;11.10;6.32;;;;;;;;;;5092932;28;20039;-80
2023/05/31 04:01:37;;;;;;;13.20;5.88;;;;;;;;;;5095987;27;22139;-80
2023/05/31 04:04:03;;;;;;;8.93;4.65;;;;;;;;;;5100208;27;20050;-80
2023/05/31 04:06:29;;;;;;;9.68;5.22;;;;;;;;;;5101248;27;20074;-80
2023/05/31 04:08:55;;;;;;;12.13;6.47;;;;;;;;;;5103280;27;20043;-80
2023/05/31 04:11:22;;;;;;;10.07;5.82;;;;;;;;;;5105926;27;20055;-80
2023/05/31 04:13:48;;;;;;;12.15;6.40;;;;;;;;;;5104152;27;21568;-80
2023/05/31 04:16:15;;;;;;;10.80;5.60;;;;;;;;;;5087926;27;20051;-80
2023/05/31 04:18:41;;;;;;;10.07;5.55;;;;;;;;;;5087361;27;20040;-80
2023/05/31 04:21:07;;;;;;;13.80;5.72;;;;;;;;;;5098515;27;20097;-80
2023/05/31 04:23:36;;;;;;;12.85;6.07;;;;;;;;;;5100336;27;20040;-80
2023/05/31 04:26:02;;;;;;;10.55;5.28;;;;;;;;;;5100606;27;20047;-80
2023/05/31 04:28:29;;;;;;;12.20;6.07;;;;;;;;;;5096819;27;21383;-81
2023/05/31 04:30:57;;;;;;;10.95;5.90;;;;;;;;;;5127351;27;20059;-80
2023/05/31 04:33:23;;;;;;;12.80;6.57;;;;;;;;;;5123049;27;20044;-81
2023/05/31 04:35:50;;;;;;;15.23;6.25;;;;;;;;;;5097596;28;20036;-81
2023/05/31 04:38:18;;;;;;;13.75;5.85;;;;;;;;;;5092419;27;20043;-81
2023/05/31 04:40:44;;;;;;;21.77;7.03;;;;;;;;;;5097060;27;20100;-81
2023/05/31 04:43:10;;;;;;;13.07;6.70;;;;;;;;;;5094486;27;20048;-78
2023/05/31 04:45:37;;;;;;;11.73;6.70;;;;;;;;;;5094622;27;20039;-79
2023/05/31 04:48:04;;;;;;;13.48;6.72;;;;;;;;;;5097450;27;20043;-78
2023/05/31 04:50:30;;;;;;;16.90;7.35;;;;;;;;;;5102232;27;20081;-78
2023/05/31 04:52:57;;;;;;;20.05;7.63;;;;;;;;;;5102267;27;20043;-81
2023/05/31 04:55:23;;;;;;;15.85;7.22;;;;;;;;;;5100357;27;20056;-82
2023/05/31 04:57:49;;;;;;;16.00;7.93;;;;;;;;;;5100990;27;20170;-70
2023/05/31 05:00:16;;;;;;;12.80;8.13;;;;;;;;;;5102055;27;20043;-83
2023/05/31 05:02:43;;;;;;;14.98;6.78;;;;;;;;;;5098943;27;20436;-76
2023/05/31 05:05:09;;;;;;;14.18;7.35;;;;;;;;;;5106124;27;20351;-82
2023/05/31 05:07:36;;;;;;;17.10;7.05;;;;;;;;;;5111460;27;20567;-83
2023/05/31 05:10:03;;;;;;;11.85;7.07;;;;;;;;;;5110082;27;20075;-83
2023/05/31 05:12:29;;;;;;;16.20;7.05;;;;;;;;;;5101232;27;20148;-82
2023/05/31 05:14:56;;;;;;;14.30;6.88;;;;;;;;;;5109448;27;20043;-76
2023/05/31 05:17:22;;;;;;;15.98;7.30;;;;;;;;;;5109834;27;20085;-82
2023/05/31 05:19:48;;;;;;;18.08;8.27;;;;;;;;;;5101214;27;20054;-82
2023/05/31 05:22:14;;;;;;;17.90;9.30;;;;;;;;;;5102402;27;20047;-81
2023/05/31 05:24:40;;;;;;;17.98;7.85;;;;;;;;;;5102226;27;20051;-81
2023/05/31 05:27:07;;;;;;;16.80;8.38;;;;;;;;;;5100524;28;20052;-83
2023/05/31 05:29:33;;;;;;;20.40;8.02;;;;;;;;;;5103107;27;20125;-81
2023/05/31 05:32:00;;;;;;;20.75;8.63;;;;;;;;;;5104671;27;20039;-82
2023/05/31 05:34:26;;;;;;;18.00;8.52;;;;;;;;;;5106013;27;21270;-81
2023/05/31 05:36:52;;;;;;;17.05;7.53;;;;;;;;;;5118752;27;20047;-82
2023/05/31 05:39:19;;;;;;;22.60;9.35;;;;;;;;;;5108427;27;20043;-81
2023/05/31 05:41:45;;;;;;;23.25;9.02;;;;;;;;;;5105959;27;20501;-80
2023/05/31 05:44:11;;;;;;;23.65;8.77;;;;;;;;;;5110842;27;20031;-81
2023/05/31 05:46:37;;;;;;;25.20;9.23;;;;;;;;;;5107391;27;20058;-80
2023/05/31 05:49:03;;;;;;;23.95;9.43;;;;;;;;;;5104749;27;20479;-80
2023/05/31 05:51:30;;;;;;;19.00;8.13;;;;;;;;;;5092850;28;20035;-80
2023/05/31 05:53:56;;;;;;;18.13;8.70;;;;;;;;;;5101375;27;20051;-82
2023/05/31 05:56:22;;;;;;;19.05;8.02;;;;;;;;;;5107486;27;20043;-82
2023/05/31 05:58:48;;;;;;;19.17;8.55;;;;;;;;;;5103514;28;20057;-82
2023/05/31 06:01:18;;;;;;;17.17;8.65;;;;;;;;;;5101590;28;20131;-82
2023/05/31 06:03:48;;;;;;;18.95;8.00;;;;;;;;;;5104497;27;20195;-82
2023/05/31 06:06:14;;;;;;;21.45;8.73;;;;;;;;;;5106219;28;20051;-82
2023/05/31 06:08:41;;;;;;;16.83;7.82;;;;;;;;;;5105710;28;20044;-82
2023/05/31 06:11:07;;;;;;;19.73;8.82;;;;;;;;;;5102491;28;20138;-81
2023/05/31 06:13:33;;;;;;;19.88;9.02;;;;;;;;;;5104779;28;20080;-82
2023/05/31 06:15:59;;;;;;;18.33;8.77;;;;;;;;;;5104022;28;20043;-81
2023/05/31 06:18:25;;;;;;;17.67;8.15;;;;;;;;;;5107158;28;20045;-81
2023/05/31 06:20:51;;;;;;;21.40;9.27;;;;;;;;;;5108064;28;21501;-81
2023/05/31 06:23:17;;;;;;;18.85;8.13;;;;;;;;;;5105249;28;20036;-81
2023/05/31 06:25:44;;;;;;;15.27;7.30;;;;;;;;;;5104452;28;20142;-81
2023/05/31 06:28:10;;;;;;;15.32;7.68;;;;;;;;;;5105115;28;20495;-82
2023/05/31 06:30:36;;;;;;;13.95;6.82;;;;;;;;;;5108597;28;20054;-82
2023/05/31 06:33:03;;;;;;;15.88;7.43;;;;;;;;;;5106567;28;20046;-82
2023/05/31 06:35:29;;;;;;;15.23;7.00;;;;;;;;;;5104852;28;20782;-81
2023/05/31 06:37:55;;;;;;;14.45;6.70;;;;;;;;;;5104821;28;20138;-81
2023/05/31 06:40:22;;;;;;;13.85;6.35;;;;;;;;;;5106419;28;20139;-81
2023/05/31 06:42:48;;;;;;;18.23;6.68;;;;;;;;;;5105902;28;20052;-82
2023/05/31 06:45:15;;;;;;;14.45;6.63;;;;;;;;;;5099295;28;20048;-82
2023/05/31 06:47:41;;;;;;;13.45;6.55;;;;;;;;;;5109510;28;20441;-83
2023/05/31 06:50:07;;;;;;;16.90;7.82;;;;;;;;;;5098406;28;20066;-84
2023/05/31 06:52:33;;;;;;;15.60;5.45;;;;;;;;;;5106425;28;20100;-74
2023/05/31 06:54:59;;;;;;;16.23;5.90;;;;;;;;;;5104809;28;20483;-74
2023/05/31 06:57:26;;;;;;;13.82;5.82;;;;;;;;;;5112142;28;20043;-74
2023/05/31 06:59:52;;;;;;;13.10;6.22;;;;;;;;;;5112174;28;20040;-83
2023/05/31 07:02:18;;;;;;;13.82;5.03;;;;;;;;;;5113589;27;20035;-83
2023/05/31 07:04:44;;;;;;;11.07;5.55;;;;;;;;;;5110475;27;20131;-82
2023/05/31 07:07:10;;;;;;;11.45;5.13;;;;;;;;;;5092181;27;20047;-83
2023/05/31 07:09:36;;;;;;;9.27;4.82;;;;;;;;;;5113131;27;20040;-82
2023/05/31 07:12:03;;;;;;;12.35;5.18;;;;;;;;;;5106024;27;20071;-83
2023/05/31 07:14:29;;;;;;;10.48;4.50;;;;;;;;;;5109338;27;20130;-82
2023/05/31 07:16:55;;;;;;;15.48;5.28;;;;;;;;;;5112783;27;20067;-82
2023/05/31 07:19:21;;;;;;;12.10;4.65;;;;;;;;;;5111694;27;20486;-82
2023/05/31 07:21:48;;;;;;;11.30;5.38;;;;;;;;;;5114390;27;20043;-82
2023/05/31 07:24:14;;;;;;;14.00;4.50;;;;;;;;;;5115866;27;20035;-82
2023/05/31 07:26:40;;;;;;;14.50;4.50;;;;;;;;;;5119208;27;20925;-83
2023/05/31 07:29:06;;;;;;;17.67;5.30;;;;;;;;;;5112667;27;20059;-82
2023/05/31 07:31:32;;;;;;;11.68;4.03;;;;;;;;;;5115849;27;20040;-83
2023/05/31 07:33:59;;;;;;;9.05;3.92;;;;;;;;;;5116277;27;20701;-83
2023/05/31 07:36:25;;;;;;;14.35;4.55;;;;;;;;;;5102391;27;20050;-82
2023/05/31 07:38:53;;;;;;;13.80;4.47;;;;;;;;;;5098781;27;20039;-83
2023/05/31 07:41:19;;;;;;;7.10;3.80;;;;;;;;;;5105515;27;20108;-83
2023/05/31 07:43:46;;;;;;;12.85;4.28;;;;;;;;;;5103427;27;20036;-82
2023/05/31 07:46:12;;;;;;;8.88;4.05;;;;;;;;;;5102413;27;20460;-83
2023/05/31 07:48:38;;;;;;;10.45;3.83;;;;;;;;;;5103945;27;20572;-81
2023/05/31 07:51:05;;;;;;;8.75;3.78;;;;;;;;;;5102518;27;20372;-83
2023/05/31 07:53:31;;;;;;;11.93;3.55;;;;;;;;;;5102385;27;20391;-79
2023/05/31 07:55:57;;;;;;;11.02;4.22;;;;;;;;;;5101422;27;20050;-77
2023/05/31 07:58:24;;;;;;;6.85;2.75;;;;;;;;;;5104285;27;20078;-83
2023/05/31 08:00:52;;;;;;;7.78;2.47;;;;;;;;;;5098688;27;20044;-83
2023/05/31 08:03:19;;;;;;;10.77;2.60;;;;;;;;;;5105770;27;20711;-83
2023/05/31 08:05:48;;;;;;;7.65;2.90;;;;;;;;;;5103440;27;20075;-85
2023/05/31 08:08:14;;;;;;;8.63;3.20;;;;;;;;;;5109206;27;20054;-84
2023/05/31 08:10:40;;;;;;;7.03;2.63;;;;;;;;;;5111688;27;20039;-83
2023/05/31 08:13:06;;;;;;;8.40;2.55;;;;;;;;;;5086930;28;20151;-83
2023/05/31 08:15:32;;;;;;;8.65;2.45;;;;;;;;;;5106334;27;20047;-84
2023/05/31 08:17:58;;;;;;;8.18;2.80;;;;;;;;;;5104398;27;20081;-83
2023/05/31 08:20:26;;;;;;;6.25;2.10;;;;;;;;;;5102284;27;20132;-84
2023/05/31 08:22:53;;;;;;;7.40;2.33;;;;;;;;;;5103412;27;20516;-83
2023/05/31 08:25:19;;;;;;;4.72;2.17;;;;;;;;;;5103617;27;20043;-83
2023/05/31 08:27:46;;;;;;;9.27;2.83;;;;;;;;;;5101955;27;20052;-84
2023/05/31 08:30:13;;;;;;;13.45;3.45;;;;;;;;;;5108073;27;20103;-84
2023/05/31 08:32:40;;;;;;;7.40;2.50;;;;;;;;;;5101232;27;20035;-84
2023/05/31 08:35:07;;;;;;;6.35;2.60;;;;;;;;;;5109578;27;20043;-84
2023/05/31 08:37:34;;;;;;;9.90;3.20;;;;;;;;;;5106725;27;20042;-84
2023/05/31 08:40:01;;;;;;;11.23;3.80;;;;;;;;;;5089995;27;20518;-83
2023/05/31 08:42:33;;;;;;;11.85;3.53;;;;;;;;;;5105407;27;20127;-84
2023/05/31 08:44:59;;;;;;;9.90;3.35;;;;;;;;;;5115348;27;20036;-83
2023/05/31 08:47:29;;;;;;;13.05;4.10;;;;;;;;;;5140311;27;20440;-83
2023/05/31 08:49:55;;;;;;;9.90;3.75;;;;;;;;;;5102248;27;20053;-83
2023/05/31 08:52:22;;;;;;;9.20;2.97;;;;;;;;;;5101931;27;20051;-84
2023/05/31 08:54:49;;;;;;;11.35;3.55;;;;;;;;;;5105421;27;20556;-83
2023/05/31 08:57:16;;;;;;;12.10;4.88;;;;;;;;;;5106831;27;20397;-84
2023/05/31 08:59:43;;;;;;;12.60;3.78;;;;;;;;;;5102341;27;20063;-84
2023/05/31 09:02:09;;;;;;;12.73;4.05;;;;;;;;;;5102848;27;20040;-84
2023/05/31 09:04:35;;;;;;;10.75;3.80;;;;;;;;;;5128977;27;20040;-84
2023/05/31 09:07:02;;;;;;;15.07;4.82;;;;;;;;;;5100685;27;20635;-75
2023/05/31 09:09:28;;;;;;;12.13;4.10;;;;;;;;;;5103722;27;20495;-78
2023/05/31 09:11:54;;;;;;;15.57;5.45;;;;;;;;;;5103161;28;20107;-84
2023/05/31 09:14:20;;;;;;;13.88;5.82;;;;;;;;;;5105235;27;20040;-83
2023/05/31 09:16:49;;;;;;;9.80;4.35;;;;;;;;;;5108386;27;20049;-84
2023/05/31 09:19:16;;;;;;;13.68;4.80;;;;;;;;;;5105458;27;20177;-84
2023/05/31 09:21:43;;;;;;;12.35;5.38;;;;;;;;;;5096459;27;20044;-84
2023/05/31 09:24:12;;;;;;;10.23;4.63;;;;;;;;;;5105549;27;20047;-83
2023/05/31 09:26:51;;;;;;;13.98;4.47;;;;;;;;;;5106920;27;20080;-83
2023/05/31 09:29:18;;;;;;;19.27;5.93;;;;;;;;;;5137186;27;20184;-83
2023/05/31 09:31:46;;;;;;;14.48;5.05;;;;;;;;;;5112315;27;20050;-83
2023/05/31 09:34:26;;;;;;;18.33;5.18;;;;;;;;;;5107616;27;20156;-83
2023/05/31 09:36:52;;;;;;;15.98;6.47;;;;;;;;;;5099372;27;20108;-83
2023/05/31 09:39:20;;;;;;;15.73;4.60;;;;;;;;;;5099705;28;20047;-83
2023/05/31 09:41:50;;;;;;;14.00;5.00;;;;;;;;;;5104246;27;21665;-84
2023/05/31 09:44:16;;;;;;;16.50;5.43;;;;;;;;;;5101865;27;20035;-83
2023/05/31 09:46:42;;;;;;;13.35;4.78;;;;;;;;;;5104766;27;20116;-84
2023/05/31 09:49:09;;;;;;;12.73;5.35;;;;;;;;;;5112864;27;20039;-84
2023/05/31 09:51:36;;;;;;;12.73;5.85;;;;;;;;;;5109259;27;20036;-84
2023/05/31 09:54:07;;;;;;;10.88;4.85;;;;;;;;;;5105062;27;20130;-84
2023/05/31 09:56:36;;;;;;;15.88;5.35;;;;;;;;;;5104868;27;20070;-83
2023/05/31 09:59:04;;;;;;;16.95;4.97;;;;;;;;;;5102315;27;20040;-83
2023/05/31 10:01:30;;;;;;;12.65;6.43;;;;;;;;;;5135733;27;20040;-83
2023/05/31 10:03:59;;;;;;;12.85;5.22;;;;;;;;;;5125744;27;20058;-83
2023/05/31 10:06:25;;;;;;;11.95;5.90;;;;;;;;;;5107070;27;20103;-83
2023/05/31 10:08:51;;;;;;;11.07;5.47;;;;;;;;;;5110274;27;20046;-84
2023/05/31 10:11:19;;;;;;;13.45;6.22;;;;;;;;;;5103530;27;20042;-83
2023/05/31 10:13:47;;;;;;;12.13;5.78;;;;;;;;;;5104141;28;20039;-83
2023/05/31 10:16:15;;;;;;;14.48;5.65;;;;;;;;;;5105737;27;20048;-84
2023/05/31 10:18:46;;;;;;;11.77;4.80;;;;;;;;;;5104850;28;20074;-84
2023/05/31 10:21:22;;;;;;;10.65;4.78;;;;;;;;;;5100636;28;20054;-84
2023/05/31 10:23:54;;;;;;;10.02;4.95;;;;;;;;;;5097560;28;20533;-84
2023/05/31 10:26:21;;;;;;;11.82;5.68;;;;;;;;;;5090537;28;20111;-84
2023/05/31 10:28:51;;;;;;;10.88;5.13;;;;;;;;;;5100869;28;20060;-83
2023/05/31 10:31:19;;;;;;;9.90;4.78;;;;;;;;;;5113571;27;20036;-84
2023/05/31 10:33:49;;;;;;;14.05;5.15;;;;;;;;;;5116030;27;20059;-83
2023/05/31 10:36:15;;;;;;;11.98;5.07;;;;;;;;;;5100428;28;20044;-84
2023/05/31 10:38:47;;;;;;;11.80;4.88;;;;;;;;;;5107195;27;20487;-83
2023/05/31 10:41:17;;;;;;;9.05;4.47;;;;;;;;;;5106423;27;20043;-83
2023/05/31 10:43:47;;;;;;;10.57;4.78;;;;;;;;;;5107693;27;20039;-83
2023/05/31 10:46:19;;;;;;;10.55;4.55;;;;;;;;;;5112734;27;20048;-83
2023/05/31 10:48:52;;;;;;;12.80;4.75;;;;;;;;;;5099037;27;20039;-81
2023/05/31 10:51:18;;;;;;;;;;;;;;;;;;5096826;27;20075;-83
2023/05/31 10:53:46;;;;;;;10.25;4.13;;;;;;;;;;5107337;27;19926;-84
2023/05/31 10:56:13;;;;;;;7.30;4.20;;;;;;;;;;5104784;27;20079;-83
2023/05/31 10:58:44;;;;;;;12.50;4.55;;;;;;;;;;5108243;27;20060;-83
2023/05/31 11:01:13;;;;;;;7.85;4.30;;;;;;;;;;5089936;27;20449;-82
2023/05/31 11:03:46;;;;;;;7.70;4.03;;;;;;;;;;5111458;27;20087;-84
2023/05/31 11:06:13;;;;;;;8.68;4.60;;;;;;;;;;5100651;27;20046;-84
2023/05/31 11:08:57;;;;;;;8.70;3.97;;;;;;;;;;5111643;27;20071;-84
2023/05/31 11:11:27;;;;;;;9.93;3.72;;;;;;;;;;5109845;27;20054;-84
2023/05/31 11:13:58;;;;;;;8.18;4.25;;;;;;;;;;5111452;27;20498;-83
2023/05/31 11:16:25;;;;;;;8.00;3.75;;;;;;;;;;5131357;27;20047;-84
2023/05/31 11:19:07;;;;;;;12.80;3.72;;;;;;;;;;5104781;27;20051;-82
2023/05/31 11:21:51;;;;;;;9.05;3.83;;;;;;;;;;5112047;27;20139;-82
2023/05/31 11:24:31;;;;;;;9.13;3.60;;;;;;;;;;5100152;27;20483;-85
2023/05/31 11:26:59;;;;;;;7.55;2.70;;;;;;;;;;5106797;27;20050;-85
2023/05/31 11:29:26;;;;;;;10.20;3.30;;;;;;;;;;5100756;27;20059;-85
2023/05/31 11:31:59;;;;;;;7.57;3.53;;;;;;;;;;5108833;27;20562;-80
2023/05/31 11:34:25;;;;;;;;;;;;;;;;;;5114990;27;20463;-80
2023/05/31 11:36:51;;;;;;;10.32;3.75;;;;;;;;;;5119227;27;19920;-81
2023/05/31 11:39:18;;;;;;;9.55;3.83;;;;;;;;;;5124377;27;20043;-81
2023/05/31 11:41:44;;;;;;;12.52;4.22;;;;;;;;;;5113978;27;20051;-80
2023/05/31 11:44:12;;;;;;;12.48;4.93;;;;;;;;;;5115885;27;20048;-81
2023/05/31 11:46:40;;;;;;;13.00;4.90;;;;;;;;;;5095079;27;20036;-81
2023/05/31 11:49:08;;;;;;;9.80;4.25;;;;;;;;;;5114326;27;20554;-80
2023/05/31 11:51:35;;;;;;;8.43;4.00;;;;;;;;;;5114141;27;20051;-81
2023/05/31 11:54:01;;;;;;;12.13;4.75;;;;;;;;;;5147714;27;20043;-86
2023/05/31 11:56:32;;;;;;;13.20;4.55;;;;;;;;;;5097297;28;20045;-85
2023/05/31 11:58:59;;;;;;;10.15;5.20;;;;;;;;;;5113194;27;20043;-85
2023/05/31 12:01:25;;;;;;;9.27;4.45;;;;;;;;;;5093665;27;20474;-84
2023/05/31 12:03:59;;;;;;;8.98;4.35;;;;;;;;;;5099653;28;20040;-84
2023/05/31 12:06:26;;;;;;;12.15;4.80;;;;;;;;;;5119006;27;20063;-84
2023/05/31 12:08:53;;;;;;;7.85;4.75;;;;;;;;;;5107311;27;20035;-85
2023/05/31 12:11:19;;;;;;;11.45;4.60;;;;;;;;;;5102607;27;20048;-85
2023/05/31 12:13:45;;;;;;;8.18;3.60;;;;;;;;;;5107646;27;20048;-85
2023/05/31 12:16:12;;;;;;;12.68;4.70;;;;;;;;;;5136083;27;20050;-85
2023/05/31 12:18:38;;;;;;;10.85;4.68;;;;;;;;;;5102724;27;20048;-84
2023/05/31 12:21:08;;;;;;;10.70;4.47;;;;;;;;;;5103352;27;20059;-84
2023/05/31 12:23:51;;;;;;;10.45;4.50;;;;;;;;;;5104328;27;20044;-85
2023/05/31 12:26:17;;;;;;;8.95;4.70;;;;;;;;;;5103833;27;20039;-85
2023/05/31 12:28:43;;;;;;;11.20;4.53;;;;;;;;;;5103127;27;20069;-84
2023/05/31 12:31:10;;;;;;;10.07;5.07;;;;;;;;;;5137130;27;20062;-83
2023/05/31 12:33:36;;;;;;;12.23;5.80;;;;;;;;;;5105590;27;20031;-81
2023/05/31 12:36:03;;;;;;;9.50;5.15;;;;;;;;;;5104198;27;20491;-82
2023/05/31 12:38:31;;;;;;;11.85;5.25;;;;;;;;;;5104471;27;20530;-82
2023/05/31 12:40:57;;;;;;;11.77;5.47;;;;;;;;;;5105531;27;20072;-82
2023/05/31 12:43:24;;;;;;;13.68;4.15;;;;;;;;;;5100851;27;20039;-80
2023/05/31 12:45:52;;;;;;;11.80;5.57;;;;;;;;;;5103247;27;20182;-79
2023/05/31 12:48:24;;;;;;;8.25;4.43;;;;;;;;;;5101764;27;20035;-81
2023/05/31 12:50:50;;;;;;;9.45;4.60;;;;;;;;;;5099002;27;20059;-80
2023/05/31 12:53:16;;;;;;;10.60;5.15;;;;;;;;;;5100590;27;20043;-80
2023/05/31 12:55:42;;;;;;;8.52;4.45;;;;;;;;;;5099667;27;20047;-79
2023/05/31 12:58:09;;;;;;;11.98;4.55;;;;;;;;;;5094027;27;20036;-80
2023/05/31 13:00:35;;;;;;;10.95;4.68;;;;;;;;;;5088530;28;20581;-80
2023/05/31 13:03:02;;;;;;;12.57;4.50;;;;;;;;;;5131522;27;20043;-80
2023/05/31 13:05:29;;;;;;;9.90;4.43;;;;;;;;;;5097694;27;20126;-80
2023/05/31 13:07:55;;;;;;;9.73;3.90;;;;;;;;;;5098941;27;20062;-79
2023/05/31 13:10:22;;;;;;;9.38;4.30;;;;;;;;;;5099849;27;20044;-79
2023/05/31 13:12:48;;;;;;;13.07;5.90;;;;;;;;;;5100965;27;20532;-71
2023/05/31 13:15:14;;;;;;;10.65;5.30;;;;;;;;;;5098771;27;20420;-79
2023/05/31 13:17:40;;;;;;;11.30;4.78;;;;;;;;;;5099703;27;20048;-80
2023/05/31 13:20:07;;;;;;;9.38;4.88;;;;;;;;;;5106785;27;20044;-74
2023/05/31 13:22:33;;;;;;;11.73;5.13;;;;;;;;;;5098686;27;20039;-75
2023/05/31 13:24:59;;;;;;;9.90;4.38;;;;;;;;;;5097316;27;20055;-74
2023/05/31 13:27:25;;;;;;;9.77;3.90;;;;;;;;;;5101647;27;20089;-75
2023/05/31 13:29:52;;;;;;;7.82;3.88;;;;;;;;;;5133150;27;20056;-74
2023/05/31 13:32:19;;;;;;;7.40;3.50;;;;;;;;;;5103047;27;20059;-75
2023/05/31 13:34:45;;;;;;;9.38;4.25;;;;;;;;;;5106447;27;20478;-75
2023/05/31 13:37:11;;;;;;;11.57;4.20;;;;;;;;;;5104800;27;20125;-74
2023/05/31 13:39:37;;;;;;;10.05;4.03;;;;;;;;;;5102072;27;20036;-74
2023/05/31 13:42:04;;;;;;;10.25;4.20;;;;;;;;;;5110891;27;20062;-74
2023/05/31 13:44:30;;;;;;;10.00;4.00;;;;;;;;;;5106761;27;21017;-74
2023/05/31 13:46:56;;;;;;;8.55;4.05;;;;;;;;;;5082599;28;20398;-75
2023/05/31 13:49:23;;;;;;;9.27;4.10;;;;;;;;;;5100968;27;20101;-75
2023/05/31 13:51:49;;;;;;;7.60;3.80;;;;;;;;;;5105075;28;20122;-75
2023/05/31 13:54:16;;;;;;;6.63;3.42;;;;;;;;;;5104236;27;20047;-75
2023/05/31 13:56:42;;;;;;;11.20;3.40;;;;;;;;;;5105842;28;20130;-75
2023/05/31 13:59:09;;;;;;;10.95;5.07;;;;;;;;;;5104674;28;20135;-72
2023/05/31 14:01:35;;;;;;;10.93;3.63;;;;;;;;;;5105352;28;20039;-71
2023/05/31 14:04:02;;;;;;;9.60;3.72;;;;;;;;;;5104514;27;20039;-72
2023/05/31 14:06:28;;;;;;;9.10;3.55;;;;;;;;;;5103564;27;20398;-72
2023/05/31 14:08:55;;;;;;;8.15;3.42;;;;;;;;;;5100992;27;20096;-72
2023/05/31 14:11:22;;;;;;;8.32;4.35;;;;;;;;;;5101461;28;20055;-71
2023/05/31 14:13:48;;;;;;;9.00;3.35;;;;;;;;;;5102484;28;21883;-72
2023/05/31 14:16:15;;;;;;;8.45;3.38;;;;;;;;;;5102465;28;20135;-72
2023/05/31 14:18:41;;;;;;;7.30;2.72;;;;;;;;;;5099711;28;20425;-69
2023/05/31 14:21:07;;;;;;;6.28;2.75;;;;;;;;;;5098976;28;20473;-72
2023/05/31 14:23:33;;;;;;;8.98;3.10;;;;;;;;;;5100909;28;20366;-71
2023/05/31 14:25:59;;;;;;;8.85;3.10;;;;;;;;;;5104353;28;20043;-72
2023/05/31 14:28:25;;;;;;;6.88;2.88;;;;;;;;;;5099850;28;20044;-83
2023/05/31 14:30:52;;;;;;;5.38;2.30;;;;;;;;;;5102513;28;20128;-83
2023/05/31 14:33:18;;;;;;;5.97;2.63;;;;;;;;;;5100273;28;20089;-72
2023/05/31 14:35:44;;;;;;;8.68;2.78;;;;;;;;;;5100312;28;20058;-70